sensor_id;sensor_type;location;lat;lon;timestamp;temperature;humidity
34989;DHT22;21192;40.182;44.516;2023-02-28T00:00:13;8.10;58.30
34989;DHT22;21192;40.182;44.516;2023-02-28T00:02:41;8.00;58.40
34989;DHT22;21192;40.182;44.516;2023-02-28T00:05:09;8.00;58.40
34989;DHT22;21192;40.182;44.516;2023-02-28T00:07:36;8.00;58.50
34989;DHT22;21192;40.182;44.516;2023-02-28T00:10:03;7.90;58.60
34989;DHT22;21192;40.182;44.516;2023-02-28T00:12:29;7.90;58.80
34989;DHT22;21192;40.182;44.516;2023-02-28T00:14:55;7.90;58.80
34989;DHT22;21192;40.182;44.516;2023-02-28T00:17:21;7.90;58.80
34989;DHT22;21192;40.182;44.516;2023-02-28T00:19:48;7.90;58.80
34989;DHT22;21192;40.182;44.516;2023-02-28T00:22:15;7.80;58.80
34989;DHT22;21192;40.182;44.516;2023-02-28T00:24:41;7.80;59.00
34989;DHT22;21192;40.182;44.516;2023-02-28T00:27:07;7.70;59.10
34989;DHT22;21192;40.182;44.516;2023-02-28T00:29:33;7.70;59.50
34989;DHT22;21192;40.182;44.516;2023-02-28T00:31:59;7.80;59.20
34989;DHT22;21192;40.182;44.516;2023-02-28T00:34:25;7.80;59.20
34989;DHT22;21192;40.182;44.516;2023-02-28T00:36:50;7.90;59.20
34989;DHT22;21192;40.182;44.516;2023-02-28T00:39:16;7.90;59.20
34989;DHT22;21192;40.182;44.516;2023-02-28T00:41:42;7.90;59.20
34989;DHT22;21192;40.182;44.516;2023-02-28T00:44:08;7.90;59.20
34989;DHT22;21192;40.182;44.516;2023-02-28T00:46:34;7.90;59.30
34989;DHT22;21192;40.182;44.516;2023-02-28T00:49:00;7.80;59.30
34989;DHT22;21192;40.182;44.516;2023-02-28T00:51:26;7.80;59.30
34989;DHT22;21192;40.182;44.516;2023-02-28T00:53:52;7.90;59.20
34989;DHT22;21192;40.182;44.516;2023-02-28T00:56:18;7.90;59.10
34989;DHT22;21192;40.182;44.516;2023-02-28T00:58:44;7.90;59.10
34989;DHT22;21192;40.182;44.516;2023-02-28T01:01:09;7.90;59.00
34989;DHT22;21192;40.182;44.516;2023-02-28T01:03:35;7.90;59.10
34989;DHT22;21192;40.182;44.516;2023-02-28T01:06:02;7.80;59.10
34989;DHT22;21192;40.182;44.516;2023-02-28T01:08:27;7.80;59.20
34989;DHT22;21192;40.182;44.516;2023-02-28T01:10:53;7.80;59.90
34989;DHT22;21192;40.182;44.516;2023-02-28T01:13:20;7.80;59.30
34989;DHT22;21192;40.182;44.516;2023-02-28T01:15:50;7.80;59.20
34989;DHT22;21192;40.182;44.516;2023-02-28T01:18:19;7.70;59.30
34989;DHT22;21192;40.182;44.516;2023-02-28T01:20:45;7.70;59.40
34989;DHT22;21192;40.182;44.516;2023-02-28T01:23:11;7.70;59.40
34989;DHT22;21192;40.182;44.516;2023-02-28T01:25:37;7.70;59.50
34989;DHT22;21192;40.182;44.516;2023-02-28T01:28:04;7.70;59.50
34989;DHT22;21192;40.182;44.516;2023-02-28T01:30:30;7.70;59.40
34989;DHT22;21192;40.182;44.516;2023-02-28T01:32:56;7.60;59.40
34989;DHT22;21192;40.182;44.516;2023-02-28T01:35:22;7.60;59.40
34989;DHT22;21192;40.182;44.516;2023-02-28T01:37:48;7.50;59.40
34989;DHT22;21192;40.182;44.516;2023-02-28T01:40:14;7.50;59.40
34989;DHT22;21192;40.182;44.516;2023-02-28T01:42:40;7.40;59.30
34989;DHT22;21192;40.182;44.516;2023-02-28T01:45:26;7.40;59.40
34989;DHT22;21192;40.182;44.516;2023-02-28T01:47:56;7.50;59.40
34989;DHT22;21192;40.182;44.516;2023-02-28T01:50:29;7.50;59.30
34989;DHT22;21192;40.182;44.516;2023-02-28T01:52:57;7.50;59.30
34989;DHT22;21192;40.182;44.516;2023-02-28T01:55:26;7.40;59.30
34989;DHT22;21192;40.182;44.516;2023-02-28T01:57:56;7.40;59.50
34989;DHT22;21192;40.182;44.516;2023-02-28T02:00:25;7.40;59.50
34989;DHT22;21192;40.182;44.516;2023-02-28T02:02:55;7.40;59.50
34989;DHT22;21192;40.182;44.516;2023-02-28T02:05:25;7.40;59.60
34989;DHT22;21192;40.182;44.516;2023-02-28T02:08:12;7.40;59.50
34989;DHT22;21192;40.182;44.516;2023-02-28T02:10:45;7.60;59.50
34989;DHT22;21192;40.182;44.516;2023-02-28T02:18:54;7.70;59.40
34989;DHT22;21192;40.182;44.516;2023-02-28T02:30:14;7.80;59.60
34989;DHT22;21192;40.182;44.516;2023-02-28T02:33:08;7.80;59.50
34989;DHT22;21192;40.182;44.516;2023-02-28T02:36:03;7.90;59.50
34989;DHT22;21192;40.182;44.516;2023-02-28T02:41:56;7.80;59.70
34989;DHT22;21192;40.182;44.516;2023-02-28T02:44:31;7.90;59.70
34989;DHT22;21192;40.182;44.516;2023-02-28T02:47:08;7.90;59.40
34989;DHT22;21192;40.182;44.516;2023-02-28T02:49:36;8.00;59.20
34989;DHT22;21192;40.182;44.516;2023-02-28T02:52:09;8.00;59.10
34989;DHT22;21192;40.182;44.516;2023-02-28T02:54:43;8.00;59.10
34989;DHT22;21192;40.182;44.516;2023-02-28T02:57:15;7.90;59.20
34989;DHT22;21192;40.182;44.516;2023-02-28T02:59:42;7.90;59.20
34989;DHT22;21192;40.182;44.516;2023-02-28T03:02:12;7.90;59.00
34989;DHT22;21192;40.182;44.516;2023-02-28T03:04:45;7.90;58.90
34989;DHT22;21192;40.182;44.516;2023-02-28T03:07:12;7.90;58.80
34989;DHT22;21192;40.182;44.516;2023-02-28T03:09:38;7.90;58.50
34989;DHT22;21192;40.182;44.516;2023-02-28T03:12:08;8.00;58.20
34989;DHT22;21192;40.182;44.516;2023-02-28T03:25:56;7.90;58.30
34989;DHT22;21192;40.182;44.516;2023-02-28T03:28:30;7.90;58.10
34989;DHT22;21192;40.182;44.516;2023-02-28T03:31:02;7.90;57.90
34989;DHT22;21192;40.182;44.516;2023-02-28T03:33:38;7.90;57.80
34989;DHT22;21192;40.182;44.516;2023-02-28T03:36:17;7.90;57.50
34989;DHT22;21192;40.182;44.516;2023-02-28T03:39:05;7.90;57.30
34989;DHT22;21192;40.182;44.516;2023-02-28T03:41:36;7.70;57.20
34989;DHT22;21192;40.182;44.516;2023-02-28T03:44:22;7.80;57.20
34989;DHT22;21192;40.182;44.516;2023-02-28T03:46:59;7.80;57.00
34989;DHT22;21192;40.182;44.516;2023-02-28T03:49:32;7.90;56.80
34989;DHT22;21192;40.182;44.516;2023-02-28T03:52:02;8.00;56.70
34989;DHT22;21192;40.182;44.516;2023-02-28T03:54:35;8.00;56.60
34989;DHT22;21192;40.182;44.516;2023-02-28T03:59:37;8.20;56.70
34989;DHT22;21192;40.182;44.516;2023-02-28T04:02:05;8.30;56.70
34989;DHT22;21192;40.182;44.516;2023-02-28T04:04:31;8.30;56.80
34989;DHT22;21192;40.182;44.516;2023-02-28T04:07:06;8.40;56.80
34989;DHT22;21192;40.182;44.516;2023-02-28T04:09:33;8.50;56.70
34989;DHT22;21192;40.182;44.516;2023-02-28T04:11:59;8.80;56.70
34989;DHT22;21192;40.182;44.516;2023-02-28T04:14:25;9.30;56.30
34989;DHT22;21192;40.182;44.516;2023-02-28T04:16:52;9.90;55.80
34989;DHT22;21192;40.182;44.516;2023-02-28T04:19:18;10.40;55.10
34989;DHT22;21192;40.182;44.516;2023-02-28T04:21:50;10.70;54.30
34989;DHT22;21192;40.182;44.516;2023-02-28T04:24:19;11.10;53.50
34989;DHT22;21192;40.182;44.516;2023-02-28T04:26:47;11.80;53.50
34989;DHT22;21192;40.182;44.516;2023-02-28T04:29:17;12.50;52.00
34989;DHT22;21192;40.182;44.516;2023-02-28T04:31:43;13.20;50.70
34989;DHT22;21192;40.182;44.516;2023-02-28T04:34:09;14.20;49.60
34989;DHT22;21192;40.182;44.516;2023-02-28T04:36:35;15.10;48.10
34989;DHT22;21192;40.182;44.516;2023-02-28T04:39:01;16.20;46.20
34989;DHT22;21192;40.182;44.516;2023-02-28T04:41:27;17.20;44.30
34989;DHT22;21192;40.182;44.516;2023-02-28T04:43:53;18.00;42.70
34989;DHT22;21192;40.182;44.516;2023-02-28T04:46:19;18.70;41.10
34989;DHT22;21192;40.182;44.516;2023-02-28T04:48:45;19.50;39.90
34989;DHT22;21192;40.182;44.516;2023-02-28T04:51:12;20.10;38.60
34989;DHT22;21192;40.182;44.516;2023-02-28T04:53:39;20.70;37.80
34989;DHT22;21192;40.182;44.516;2023-02-28T04:56:06;21.20;37.00
34989;DHT22;21192;40.182;44.516;2023-02-28T04:58:33;21.80;36.30
34989;DHT22;21192;40.182;44.516;2023-02-28T05:01:04;22.00;35.50
34989;DHT22;21192;40.182;44.516;2023-02-28T05:03:30;21.80;35.40
34989;DHT22;21192;40.182;44.516;2023-02-28T05:05:56;21.80;35.30
34989;DHT22;21192;40.182;44.516;2023-02-28T05:08:22;22.00;35.20
34989;DHT22;21192;40.182;44.516;2023-02-28T05:10:47;22.50;34.80
34989;DHT22;21192;40.182;44.516;2023-02-28T05:13:13;23.30;33.80
34989;DHT22;21192;40.182;44.516;2023-02-28T05:15:40;24.00;32.70
34989;DHT22;21192;40.182;44.516;2023-02-28T05:18:05;24.50;31.80
34989;DHT22;21192;40.182;44.516;2023-02-28T05:20:31;24.90;31.10
34989;DHT22;21192;40.182;44.516;2023-02-28T05:22:59;25.50;30.30
34989;DHT22;21192;40.182;44.516;2023-02-28T05:25:25;25.70;29.80
34989;DHT22;21192;40.182;44.516;2023-02-28T05:27:51;25.90;29.40
34989;DHT22;21192;40.182;44.516;2023-02-28T05:30:17;26.10;29.20
34989;DHT22;21192;40.182;44.516;2023-02-28T05:32:43;26.20;29.00
34989;DHT22;21192;40.182;44.516;2023-02-28T05:35:10;26.60;28.90
34989;DHT22;21192;40.182;44.516;2023-02-28T05:37:37;26.70;28.60
34989;DHT22;21192;40.182;44.516;2023-02-28T05:40:05;27.10;28.40
34989;DHT22;21192;40.182;44.516;2023-02-28T05:42:37;27.30;28.10
34989;DHT22;21192;40.182;44.516;2023-02-28T05:45:04;27.50;27.90
34989;DHT22;21192;40.182;44.516;2023-02-28T05:47:31;28.10;27.60
34989;DHT22;21192;40.182;44.516;2023-02-28T05:49:57;28.50;27.30
34989;DHT22;21192;40.182;44.516;2023-02-28T05:52:22;28.90;27.10
34989;DHT22;21192;40.182;44.516;2023-02-28T05:54:48;29.10;27.00
34989;DHT22;21192;40.182;44.516;2023-02-28T05:57:15;29.50;27.20
34989;DHT22;21192;40.182;44.516;2023-02-28T05:59:40;30.00;27.10
34989;DHT22;21192;40.182;44.516;2023-02-28T06:02:12;30.30;26.90
34989;DHT22;21192;40.182;44.516;2023-02-28T06:04:38;30.00;26.70
34989;DHT22;21192;40.182;44.516;2023-02-28T06:07:04;29.00;27.20
34989;DHT22;21192;40.182;44.516;2023-02-28T06:09:29;28.70;27.40
34989;DHT22;21192;40.182;44.516;2023-02-28T06:11:58;28.90;27.60
34989;DHT22;21192;40.182;44.516;2023-02-28T06:14:24;28.80;27.50
34989;DHT22;21192;40.182;44.516;2023-02-28T06:16:50;29.00;27.60
34989;DHT22;21192;40.182;44.516;2023-02-28T06:19:16;29.40;27.40
34989;DHT22;21192;40.182;44.516;2023-02-28T06:21:42;29.50;27.20
34989;DHT22;21192;40.182;44.516;2023-02-28T06:24:08;29.50;27.20
34989;DHT22;21192;40.182;44.516;2023-02-28T06:26:34;29.20;27.20
34989;DHT22;21192;40.182;44.516;2023-02-28T06:29:00;28.50;27.10
34989;DHT22;21192;40.182;44.516;2023-02-28T06:31:26;27.10;27.80
34989;DHT22;21192;40.182;44.516;2023-02-28T06:33:55;25.70;28.60
34989;DHT22;21192;40.182;44.516;2023-02-28T06:36:21;25.00;29.30
34989;DHT22;21192;40.182;44.516;2023-02-28T06:38:47;24.30;29.50
34989;DHT22;21192;40.182;44.516;2023-02-28T06:41:17;23.50;30.00
34989;DHT22;21192;40.182;44.516;2023-02-28T06:43:43;22.30;31.30
34989;DHT22;21192;40.182;44.516;2023-02-28T06:46:13;21.50;32.50
34989;DHT22;21192;40.182;44.516;2023-02-28T06:48:40;21.10;33.10
34989;DHT22;21192;40.182;44.516;2023-02-28T06:51:13;20.50;33.90
34989;DHT22;21192;40.182;44.516;2023-02-28T06:53:39;20.30;34.40
34989;DHT22;21192;40.182;44.516;2023-02-28T06:56:07;19.80;34.80
34989;DHT22;21192;40.182;44.516;2023-02-28T06:58:34;19.50;35.50
34989;DHT22;21192;40.182;44.516;2023-02-28T07:01:00;19.10;36.00
34989;DHT22;21192;40.182;44.516;2023-02-28T07:03:26;19.00;36.30
34989;DHT22;21192;40.182;44.516;2023-02-28T07:05:52;18.80;36.30
34989;DHT22;21192;40.182;44.516;2023-02-28T07:08:17;18.60;36.60
34989;DHT22;21192;40.182;44.516;2023-02-28T07:10:43;18.60;36.80
34989;DHT22;21192;40.182;44.516;2023-02-28T07:13:10;18.50;36.80
34989;DHT22;21192;40.182;44.516;2023-02-28T07:15:36;18.20;37.20
34989;DHT22;21192;40.182;44.516;2023-02-28T07:18:03;17.90;37.70
34989;DHT22;21192;40.182;44.516;2023-02-28T07:20:29;17.90;38.10
34989;DHT22;21192;40.182;44.516;2023-02-28T07:22:55;17.80;38.40
34989;DHT22;21192;40.182;44.516;2023-02-28T07:25:25;17.30;38.80
34989;DHT22;21192;40.182;44.516;2023-02-28T07:27:51;16.90;39.60
34989;DHT22;21192;40.182;44.516;2023-02-28T07:30:18;16.60;40.00
34989;DHT22;21192;40.182;44.516;2023-02-28T07:32:44;16.60;40.30
34989;DHT22;21192;40.182;44.516;2023-02-28T07:35:10;16.50;40.40
34989;DHT22;21192;40.182;44.516;2023-02-28T07:37:36;16.40;40.70
34989;DHT22;21192;40.182;44.516;2023-02-28T07:40:06;16.60;40.80
34989;DHT22;21192;40.182;44.516;2023-02-28T07:42:37;16.50;40.60
34989;DHT22;21192;40.182;44.516;2023-02-28T07:45:04;16.70;40.60
34989;DHT22;21192;40.182;44.516;2023-02-28T07:47:31;16.50;40.60
34989;DHT22;21192;40.182;44.516;2023-02-28T07:49:57;16.30;40.90
34989;DHT22;21192;40.182;44.516;2023-02-28T07:52:23;16.40;40.80
34989;DHT22;21192;40.182;44.516;2023-02-28T07:54:50;16.50;40.50
34989;DHT22;21192;40.182;44.516;2023-02-28T07:57:16;16.60;40.10
34989;DHT22;21192;40.182;44.516;2023-02-28T07:59:42;16.70;39.90
34989;DHT22;21192;40.182;44.516;2023-02-28T08:02:17;16.60;39.80
34989;DHT22;21192;40.182;44.516;2023-02-28T08:04:44;16.60;39.80
34989;DHT22;21192;40.182;44.516;2023-02-28T08:07:12;16.50;39.80
34989;DHT22;21192;40.182;44.516;2023-02-28T08:09:42;16.70;39.80
34989;DHT22;21192;40.182;44.516;2023-02-28T08:12:09;16.80;39.50
34989;DHT22;21192;40.182;44.516;2023-02-28T08:14:35;16.80;39.30
34989;DHT22;21192;40.182;44.516;2023-02-28T08:17:01;16.70;39.40
34989;DHT22;21192;40.182;44.516;2023-02-28T08:19:28;16.70;39.40
34989;DHT22;21192;40.182;44.516;2023-02-28T08:21:54;16.80;40.10
34989;DHT22;21192;40.182;44.516;2023-02-28T08:24:20;16.60;39.30
34989;DHT22;21192;40.182;44.516;2023-02-28T08:26:46;16.60;39.50
34989;DHT22;21192;40.182;44.516;2023-02-28T08:29:12;16.50;39.70
34989;DHT22;21192;40.182;44.516;2023-02-28T08:31:38;16.60;40.00
34989;DHT22;21192;40.182;44.516;2023-02-28T08:34:12;16.70;40.30
34989;DHT22;21192;40.182;44.516;2023-02-28T08:36:38;16.70;39.40
34989;DHT22;21192;40.182;44.516;2023-02-28T08:39:05;16.80;39.30
34989;DHT22;21192;40.182;44.516;2023-02-28T08:41:32;16.80;39.90
34989;DHT22;21192;40.182;44.516;2023-02-28T08:43:58;16.80;39.20
34989;DHT22;21192;40.182;44.516;2023-02-28T08:46:24;16.70;39.20
34989;DHT22;21192;40.182;44.516;2023-02-28T08:48:54;16.70;39.20
34989;DHT22;21192;40.182;44.516;2023-02-28T08:51:21;16.70;39.00
34989;DHT22;21192;40.182;44.516;2023-02-28T08:53:53;16.80;38.80
34989;DHT22;21192;40.182;44.516;2023-02-28T08:56:19;16.90;38.50
34989;DHT22;21192;40.182;44.516;2023-02-28T08:58:46;17.00;38.40
34989;DHT22;21192;40.182;44.516;2023-02-28T09:01:27;16.80;38.50
34989;DHT22;21192;40.182;44.516;2023-02-28T09:03:53;16.70;38.90
34989;DHT22;21192;40.182;44.516;2023-02-28T09:06:21;16.80;39.30
34989;DHT22;21192;40.182;44.516;2023-02-28T09:08:47;16.70;38.70
34989;DHT22;21192;40.182;44.516;2023-02-28T09:11:13;16.70;38.60
34989;DHT22;21192;40.182;44.516;2023-02-28T09:13:39;16.80;38.50
34989;DHT22;21192;40.182;44.516;2023-02-28T09:16:08;16.90;38.30
34989;DHT22;21192;40.182;44.516;2023-02-28T09:18:35;17.00;38.30
34989;DHT22;21192;40.182;44.516;2023-02-28T09:21:07;17.20;38.10
34989;DHT22;21192;40.182;44.516;2023-02-28T09:23:33;17.30;37.80
34989;DHT22;21192;40.182;44.516;2023-02-28T09:25:59;17.20;37.90
34989;DHT22;21192;40.182;44.516;2023-02-28T09:28:25;17.20;37.80
34989;DHT22;21192;40.182;44.516;2023-02-28T09:30:53;16.90;37.80
34989;DHT22;21192;40.182;44.516;2023-02-28T09:33:20;16.80;37.80
34989;DHT22;21192;40.182;44.516;2023-02-28T09:35:50;16.70;37.90
34989;DHT22;21192;40.182;44.516;2023-02-28T09:38:16;16.70;38.40
34989;DHT22;21192;40.182;44.516;2023-02-28T09:40:50;16.80;38.00
34989;DHT22;21192;40.182;44.516;2023-02-28T09:43:19;16.90;37.40
34989;DHT22;21192;40.182;44.516;2023-02-28T09:45:59;16.70;37.40
34989;DHT22;21192;40.182;44.516;2023-02-28T09:48:33;16.70;37.70
34989;DHT22;21192;40.182;44.516;2023-02-28T09:51:11;16.90;37.30
34989;DHT22;21192;40.182;44.516;2023-02-28T09:53:38;17.00;36.90
34989;DHT22;21192;40.182;44.516;2023-02-28T10:01:51;17.00;36.90
34989;DHT22;21192;40.182;44.516;2023-02-28T10:06:44;17.00;37.40
34989;DHT22;21192;40.182;44.516;2023-02-28T10:09:20;17.20;37.30
34989;DHT22;21192;40.182;44.516;2023-02-28T10:11:52;17.20;37.30
34989;DHT22;21192;40.182;44.516;2023-02-28T10:14:29;17.10;37.40
34989;DHT22;21192;40.182;44.516;2023-02-28T10:17:18;17.00;38.40
34989;DHT22;21192;40.182;44.516;2023-02-28T10:20:10;16.90;37.60
34989;DHT22;21192;40.182;44.516;2023-02-28T10:22:59;17.10;37.40
34989;DHT22;21192;40.182;44.516;2023-02-28T10:25:28;17.00;37.10
34989;DHT22;21192;40.182;44.516;2023-02-28T10:30:34;17.00;37.00
34989;DHT22;21192;40.182;44.516;2023-02-28T10:33:00;17.00;36.90
34989;DHT22;21192;40.182;44.516;2023-02-28T10:35:27;17.10;36.60
34989;DHT22;21192;40.182;44.516;2023-02-28T10:37:57;17.10;36.30
34989;DHT22;21192;40.182;44.516;2023-02-28T10:42:58;17.10;36.60
34989;DHT22;21192;40.182;44.516;2023-02-28T10:45:25;17.00;36.80
34989;DHT22;21192;40.182;44.516;2023-02-28T10:48:00;16.90;36.80
34989;DHT22;21192;40.182;44.516;2023-02-28T10:50:43;16.90;36.60
34989;DHT22;21192;40.182;44.516;2023-02-28T11:01:55;17.00;36.20
34989;DHT22;21192;40.182;44.516;2023-02-28T11:04:03;16.80;36.10
34989;DHT22;21192;40.182;44.516;2023-02-28T11:06:31;16.60;36.20
34989;DHT22;21192;40.182;44.516;2023-02-28T11:09:06;16.80;36.40
34989;DHT22;21192;40.182;44.516;2023-02-28T11:11:43;16.80;36.40
34989;DHT22;21192;40.182;44.516;2023-02-28T11:14:23;16.80;36.60
34989;DHT22;21192;40.182;44.516;2023-02-28T11:16:50;16.80;36.60
34989;DHT22;21192;40.182;44.516;2023-02-28T11:19:26;16.80;36.70
34989;DHT22;21192;40.182;44.516;2023-02-28T11:22:04;16.70;36.80
34989;DHT22;21192;40.182;44.516;2023-02-28T11:24:45;16.70;37.00
34989;DHT22;21192;40.182;44.516;2023-02-28T11:29:51;16.70;37.00
34989;DHT22;21192;40.182;44.516;2023-02-28T11:32:20;16.60;37.10
34989;DHT22;21192;40.182;44.516;2023-02-28T11:35:01;16.50;37.70
34989;DHT22;21192;40.182;44.516;2023-02-28T11:37:28;16.60;37.70
34989;DHT22;21192;40.182;44.516;2023-02-28T11:39:55;16.60;37.50
34989;DHT22;21192;40.182;44.516;2023-02-28T11:43:02;16.60;37.30
34989;DHT22;21192;40.182;44.516;2023-02-28T11:45:58;16.70;37.00
34989;DHT22;21192;40.182;44.516;2023-02-28T11:54:01;16.80;36.90
34989;DHT22;21192;40.182;44.516;2023-02-28T12:02:03;17.00;36.90
34989;DHT22;21192;40.182;44.516;2023-02-28T12:25:54;16.60;37.20
34989;DHT22;21192;40.182;44.516;2023-02-28T12:28:23;16.60;37.20
34989;DHT22;21192;40.182;44.516;2023-02-28T12:30:57;16.70;37.10
34989;DHT22;21192;40.182;44.516;2023-02-28T12:33:29;16.80;37.10
34989;DHT22;21192;40.182;44.516;2023-02-28T12:36:03;16.90;37.00
34989;DHT22;21192;40.182;44.516;2023-02-28T12:38:34;16.80;36.90
34989;DHT22;21192;40.182;44.516;2023-02-28T12:43:37;16.80;37.00
34989;DHT22;21192;40.182;44.516;2023-02-28T12:46:14;16.90;36.80
34989;DHT22;21192;40.182;44.516;2023-02-28T12:48:53;16.90;36.80
34989;DHT22;21192;40.182;44.516;2023-02-28T12:51:22;16.90;36.80
34989;DHT22;21192;40.182;44.516;2023-02-28T12:54:10;16.80;36.70
34989;DHT22;21192;40.182;44.516;2023-02-28T12:59:41;16.50;37.00
34989;DHT22;21192;40.182;44.516;2023-02-28T13:07:36;16.10;37.70
34989;DHT22;21192;40.182;44.516;2023-02-28T13:10:05;16.20;37.70
34989;DHT22;21192;40.182;44.516;2023-02-28T13:12:33;16.20;37.70
34989;DHT22;21192;40.182;44.516;2023-02-28T13:17:53;16.20;37.90
34989;DHT22;21192;40.182;44.516;2023-02-28T13:20:47;16.20;37.80
34989;DHT22;21192;40.182;44.516;2023-02-28T13:26:12;16.10;37.80
34989;DHT22;21192;40.182;44.516;2023-02-28T13:31:19;16.20;37.80
34989;DHT22;21192;40.182;44.516;2023-02-28T13:36:29;16.10;37.80
34989;DHT22;21192;40.182;44.516;2023-02-28T13:39:01;16.00;37.90
34989;DHT22;21192;40.182;44.516;2023-02-28T13:44:15;15.90;38.00
34989;DHT22;21192;40.182;44.516;2023-02-28T13:49:30;15.80;38.20
34989;DHT22;21192;40.182;44.516;2023-02-28T13:52:16;15.80;38.20
34989;DHT22;21192;40.182;44.516;2023-02-28T13:57:58;15.80;38.20
34989;DHT22;21192;40.182;44.516;2023-02-28T14:00:50;15.80;38.30
34989;DHT22;21192;40.182;44.516;2023-02-28T14:11:46;15.70;38.40
34989;DHT22;21192;40.182;44.516;2023-02-28T14:17:01;15.60;38.50
34989;DHT22;21192;40.182;44.516;2023-02-28T14:19:31;15.50;38.50
34989;DHT22;21192;40.182;44.516;2023-02-28T14:38:20;15.40;38.90
34989;DHT22;21192;40.182;44.516;2023-02-28T14:40:49;15.40;38.90
34989;DHT22;21192;40.182;44.516;2023-02-28T14:43:27;15.50;38.90
34989;DHT22;21192;40.182;44.516;2023-02-28T14:46:05;15.40;38.90
34989;DHT22;21192;40.182;44.516;2023-02-28T14:48:31;15.30;38.90
34989;DHT22;21192;40.182;44.516;2023-02-28T14:51:00;15.30;39.00
34989;DHT22;21192;40.182;44.516;2023-02-28T14:53:29;15.30;39.10
34989;DHT22;21192;40.182;44.516;2023-02-28T14:55:55;15.30;39.20
34989;DHT22;21192;40.182;44.516;2023-02-28T14:58:23;15.30;39.20
34989;DHT22;21192;40.182;44.516;2023-02-28T15:00:51;15.20;39.30
34989;DHT22;21192;40.182;44.516;2023-02-28T15:03:38;15.20;39.40
34989;DHT22;21192;40.182;44.516;2023-02-28T15:06:06;15.20;39.40
34989;DHT22;21192;40.182;44.516;2023-02-28T15:08:38;15.20;39.50
34989;DHT22;21192;40.182;44.516;2023-02-28T15:11:19;15.10;39.50
34989;DHT22;21192;40.182;44.516;2023-02-28T15:13:52;15.00;39.70
34989;DHT22;21192;40.182;44.516;2023-02-28T15:16:22;15.00;39.70
34989;DHT22;21192;40.182;44.516;2023-02-28T15:19:05;15.00;39.70
34989;DHT22;21192;40.182;44.516;2023-02-28T15:21:39;15.00;39.70
34989;DHT22;21192;40.182;44.516;2023-02-28T15:27:07;15.10;39.80
34989;DHT22;21192;40.182;44.516;2023-02-28T15:29:48;15.10;39.70
34989;DHT22;21192;40.182;44.516;2023-02-28T15:32:36;15.10;39.80
34989;DHT22;21192;40.182;44.516;2023-02-28T15:40:36;15.10;40.00
34989;DHT22;21192;40.182;44.516;2023-02-28T15:43:06;15.00;40.00
34989;DHT22;21192;40.182;44.516;2023-02-28T15:45:36;15.00;40.10
34989;DHT22;21192;40.182;44.516;2023-02-28T15:48:15;14.90;40.10
34989;DHT22;21192;40.182;44.516;2023-02-28T15:50:41;15.00;40.20
34989;DHT22;21192;40.182;44.516;2023-02-28T15:53:14;14.90;40.20
34989;DHT22;21192;40.182;44.516;2023-02-28T15:55:41;14.90;40.40
34989;DHT22;21192;40.182;44.516;2023-02-28T15:58:11;14.90;40.40
34989;DHT22;21192;40.182;44.516;2023-02-28T16:00:39;14.90;40.50
34989;DHT22;21192;40.182;44.516;2023-02-28T16:03:27;14.80;40.60
34989;DHT22;21192;40.182;44.516;2023-02-28T16:06:55;14.80;40.80
34989;DHT22;21192;40.182;44.516;2023-02-28T16:08:55;14.70;40.90
34989;DHT22;21192;40.182;44.516;2023-02-28T16:11:22;14.80;41.10
34989;DHT22;21192;40.182;44.516;2023-02-28T16:13:49;14.70;41.20
34989;DHT22;21192;40.182;44.516;2023-02-28T16:16:17;14.70;41.40
34989;DHT22;21192;40.182;44.516;2023-02-28T16:18:43;14.60;41.50
34989;DHT22;21192;40.182;44.516;2023-02-28T16:21:09;14.50;41.80
34989;DHT22;21192;40.182;44.516;2023-02-28T16:23:35;14.40;42.20
34989;DHT22;21192;40.182;44.516;2023-02-28T16:26:02;14.40;42.50
34989;DHT22;21192;40.182;44.516;2023-02-28T16:28:31;14.30;42.50
34989;DHT22;21192;40.182;44.516;2023-02-28T16:31:03;14.30;42.60
34989;DHT22;21192;40.182;44.516;2023-02-28T16:33:31;14.30;42.70
34989;DHT22;21192;40.182;44.516;2023-02-28T16:35:57;14.30;42.70
34989;DHT22;21192;40.182;44.516;2023-02-28T16:38:23;14.30;43.00
34989;DHT22;21192;40.182;44.516;2023-02-28T16:40:51;14.20;43.10
34989;DHT22;21192;40.182;44.516;2023-02-28T16:43:19;14.20;43.20
34989;DHT22;21192;40.182;44.516;2023-02-28T16:45:47;14.10;43.40
34989;DHT22;21192;40.182;44.516;2023-02-28T16:48:15;14.00;43.80
34989;DHT22;21192;40.182;44.516;2023-02-28T16:50:42;13.90;44.20
34989;DHT22;21192;40.182;44.516;2023-02-28T16:53:10;13.80;44.70
34989;DHT22;21192;40.182;44.516;2023-02-28T16:55:36;13.80;45.00
34989;DHT22;21192;40.182;44.516;2023-02-28T16:58:03;13.60;45.50
34989;DHT22;21192;40.182;44.516;2023-02-28T17:00:32;13.60;46.00
34989;DHT22;21192;40.182;44.516;2023-02-28T17:02:58;13.60;46.40
34989;DHT22;21192;40.182;44.516;2023-02-28T17:05:25;13.50;46.60
34989;DHT22;21192;40.182;44.516;2023-02-28T17:07:51;13.50;47.20
34989;DHT22;21192;40.182;44.516;2023-02-28T17:10:20;13.50;47.80
34989;DHT22;21192;40.182;44.516;2023-02-28T17:12:47;13.40;48.30
34989;DHT22;21192;40.182;44.516;2023-02-28T17:15:14;13.40;49.00
34989;DHT22;21192;40.182;44.516;2023-02-28T17:17:40;13.40;49.20
34989;DHT22;21192;40.182;44.516;2023-02-28T17:20:11;13.40;49.50
34989;DHT22;21192;40.182;44.516;2023-02-28T17:22:37;13.30;49.80
34989;DHT22;21192;40.182;44.516;2023-02-28T17:25:03;13.20;50.30
34989;DHT22;21192;40.182;44.516;2023-02-28T17:27:30;13.10;50.80
34989;DHT22;21192;40.182;44.516;2023-02-28T17:29:55;13.10;51.00
34989;DHT22;21192;40.182;44.516;2023-02-28T17:32:21;13.20;51.10
34989;DHT22;21192;40.182;44.516;2023-02-28T17:34:47;13.10;51.00
34989;DHT22;21192;40.182;44.516;2023-02-28T17:37:13;13.00;51.10
34989;DHT22;21192;40.182;44.516;2023-02-28T17:39:39;13.00;51.30
34989;DHT22;21192;40.182;44.516;2023-02-28T17:42:04;12.90;51.40
34989;DHT22;21192;40.182;44.516;2023-02-28T17:44:30;12.90;51.60
34989;DHT22;21192;40.182;44.516;2023-02-28T17:46:56;12.90;51.70
34989;DHT22;21192;40.182;44.516;2023-02-28T17:49:22;12.80;51.80
34989;DHT22;21192;40.182;44.516;2023-02-28T17:51:48;12.80;51.90
34989;DHT22;21192;40.182;44.516;2023-02-28T17:54:14;12.70;51.90
34989;DHT22;21192;40.182;44.516;2023-02-28T17:56:40;12.70;52.10
34989;DHT22;21192;40.182;44.516;2023-02-28T17:59:09;12.60;52.10
34989;DHT22;21192;40.182;44.516;2023-02-28T18:01:35;12.50;52.40
34989;DHT22;21192;40.182;44.516;2023-02-28T18:04:01;12.50;52.40
34989;DHT22;21192;40.182;44.516;2023-02-28T18:06:39;12.40;52.60
34989;DHT22;21192;40.182;44.516;2023-02-28T18:09:20;12.30;52.70